sensor_id;sensor_type;location;lat;lon;timestamp;P1;durP1;ratioP1;P2;durP2;ratioP2
31584;SDS011;18191;51.288;12.390;2024-02-28T00:04:30;32.47;;;11.35;;
31584;SDS011;18191;51.288;12.390;2024-02-28T00:09:20;33.38;;;11.48;;
31584;SDS011;18191;51.288;12.390;2024-02-28T00:14:11;36.60;;;11.30;;
31584;SDS011;18191;51.288;12.390;2024-02-28T00:19:02;34.63;;;13.10;;
31584;SDS011;18191;51.288;12.390;2024-02-28T00:23:52;36.55;;;13.88;;
31584;SDS011;18191;51.288;12.390;2024-02-28T00:28:42;37.50;;;11.13;;
31584;SDS011;18191;51.288;12.390;2024-02-28T00:33:32;43.58;;;13.45;;
31584;SDS011;18191;51.288;12.390;2024-02-28T00:38:23;35.13;;;12.90;;
31584;SDS011;18191;51.288;12.390;2024-02-28T00:43:13;42.35;;;13.52;;
31584;SDS011;18191;51.288;12.390;2024-02-28T00:48:03;46.34;;;14.26;;
31584;SDS011;18191;51.288;12.390;2024-02-28T00:52:54;40.53;;;13.83;;
31584;SDS011;18191;51.288;12.390;2024-02-28T00:57:44;38.17;;;12.07;;
31584;SDS011;18191;51.288;12.390;2024-02-28T01:02:34;38.46;;;12.02;;
31584;SDS011;18191;51.288;12.390;2024-02-28T01:07:24;30.17;;;11.40;;
31584;SDS011;18191;51.288;12.390;2024-02-28T01:12:15;37.50;;;12.65;;
31584;SDS011;18191;51.288;12.390;2024-02-28T01:17:05;44.53;;;12.83;;
31584;SDS011;18191;51.288;12.390;2024-02-28T01:21:55;39.67;;;11.32;;
31584;SDS011;18191;51.288;12.390;2024-02-28T01:26:46;42.50;;;11.73;;
31584;SDS011;18191;51.288;12.390;2024-02-28T01:31:36;47.17;;;13.73;;
31584;SDS011;18191;51.288;12.390;2024-02-28T01:36:26;57.13;;;14.50;;
31584;SDS011;18191;51.288;12.390;2024-02-28T01:41:17;38.93;;;12.37;;
31584;SDS011;18191;51.288;12.390;2024-02-28T01:46:16;44.26;;;12.96;;
31584;SDS011;18191;51.288;12.390;2024-02-28T01:51:09;45.53;;;14.73;;
31584;SDS011;18191;51.288;12.390;2024-02-28T01:56:00;32.17;;;11.82;;
31584;SDS011;18191;51.288;12.390;2024-02-28T02:00:51;37.45;;;12.23;;
31584;SDS011;18191;51.288;12.390;2024-02-28T02:05:42;42.63;;;12.80;;
31584;SDS011;18191;51.288;12.390;2024-02-28T02:10:33;37.45;;;12.95;;
31584;SDS011;18191;51.288;12.390;2024-02-28T02:15:23;45.15;;;12.95;;
31584;SDS011;18191;51.288;12.390;2024-02-28T02:20:14;45.30;;;15.07;;
31584;SDS011;18191;51.288;12.390;2024-02-28T02:25:05;51.13;;;14.00;;
31584;SDS011;18191;51.288;12.390;2024-02-28T02:29:56;43.33;;;13.73;;
31584;SDS011;18191;51.288;12.390;2024-02-28T02:34:46;43.60;;;14.07;;
31584;SDS011;18191;51.288;12.390;2024-02-28T02:39:36;51.03;;;13.93;;
31584;SDS011;18191;51.288;12.390;2024-02-28T02:44:27;37.48;;;14.26;;
31584;SDS011;18191;51.288;12.390;2024-02-28T02:49:17;53.07;;;16.73;;
31584;SDS011;18191;51.288;12.390;2024-02-28T02:54:11;47.97;;;15.13;;
31584;SDS011;18191;51.288;12.390;2024-02-28T02:59:02;50.40;;;16.60;;
31584;SDS011;18191;51.288;12.390;2024-02-28T03:03:52;43.07;;;14.23;;
31584;SDS011;18191;51.288;12.390;2024-02-28T03:08:42;42.17;;;14.57;;
31584;SDS011;18191;51.288;12.390;2024-02-28T03:13:33;52.43;;;16.97;;
31584;SDS011;18191;51.288;12.390;2024-02-28T03:18:23;46.36;;;16.02;;
31584;SDS011;18191;51.288;12.390;2024-02-28T03:23:13;49.08;;;16.13;;
31584;SDS011;18191;51.288;12.390;2024-02-28T03:28:04;42.97;;;15.23;;
31584;SDS011;18191;51.288;12.390;2024-02-28T03:32:54;45.07;;;14.80;;
31584;SDS011;18191;51.288;12.390;2024-02-28T03:37:44;49.10;;;14.50;;
31584;SDS011;18191;51.288;12.390;2024-02-28T03:42:35;34.13;;;12.93;;
31584;SDS011;18191;51.288;12.390;2024-02-28T03:47:25;38.63;;;13.97;;
31584;SDS011;18191;51.288;12.390;2024-02-28T03:52:15;40.63;;;15.40;;
31584;SDS011;18191;51.288;12.390;2024-02-28T03:57:05;45.73;;;14.27;;
31584;SDS011;18191;51.288;12.390;2024-02-28T04:01:56;40.05;;;14.23;;
31584;SDS011;18191;51.288;12.390;2024-02-28T04:06:46;38.03;;;13.80;;
31584;SDS011;18191;51.288;12.390;2024-02-28T04:11:37;37.13;;;14.17;;
31584;SDS011;18191;51.288;12.390;2024-02-28T04:16:28;40.95;;;13.57;;
31584;SDS011;18191;51.288;12.390;2024-02-28T04:21:18;41.67;;;14.37;;
31584;SDS011;18191;51.288;12.390;2024-02-28T04:26:09;40.07;;;14.63;;
31584;SDS011;18191;51.288;12.390;2024-02-28T04:30:59;46.30;;;14.83;;
31584;SDS011;18191;51.288;12.390;2024-02-28T04:35:49;45.50;;;17.00;;
31584;SDS011;18191;51.288;12.390;2024-02-28T04:40:40;40.70;;;15.03;;
31584;SDS011;18191;51.288;12.390;2024-02-28T04:45:30;48.15;;;18.08;;
31584;SDS011;18191;51.288;12.390;2024-02-28T04:50:20;55.10;;;18.13;;
31584;SDS011;18191;51.288;12.390;2024-02-28T04:55:11;54.08;;;18.38;;
31584;SDS011;18191;51.288;12.390;2024-02-28T05:00:02;45.72;;;17.23;;
31584;SDS011;18191;51.288;12.390;2024-02-28T05:09:43;46.03;;;16.70;;
31584;SDS011;18191;51.288;12.390;2024-02-28T05:14:34;52.13;;;19.63;;
31584;SDS011;18191;51.288;12.390;2024-02-28T05:19:24;50.60;;;19.98;;
31584;SDS011;18191;51.288;12.390;2024-02-28T05:24:14;49.13;;;17.07;;
31584;SDS011;18191;51.288;12.390;2024-02-28T05:29:05;47.87;;;16.87;;
31584;SDS011;18191;51.288;12.390;2024-02-28T05:33:56;39.17;;;16.23;;
31584;SDS011;18191;51.288;12.390;2024-02-28T05:38:47;43.90;;;14.45;;
31584;SDS011;18191;51.288;12.390;2024-02-28T05:43:38;45.12;;;15.90;;
31584;SDS011;18191;51.288;12.390;2024-02-28T05:48:28;37.43;;;14.70;;
31584;SDS011;18191;51.288;12.390;2024-02-28T05:53:19;38.50;;;13.67;;
31584;SDS011;18191;51.288;12.390;2024-02-28T05:58:09;47.60;;;17.40;;
31584;SDS011;18191;51.288;12.390;2024-02-28T06:03:00;33.90;;;12.03;;
31584;SDS011;18191;51.288;12.390;2024-02-28T06:07:50;43.67;;;13.17;;
31584;SDS011;18191;51.288;12.390;2024-02-28T06:12:41;33.88;;;11.98;;
31584;SDS011;18191;51.288;12.390;2024-02-28T06:17:31;31.10;;;10.70;;
31584;SDS011;18191;51.288;12.390;2024-02-28T06:22:21;35.37;;;12.27;;
31584;SDS011;18191;51.288;12.390;2024-02-28T06:27:12;29.60;;;10.73;;
31584;SDS011;18191;51.288;12.390;2024-02-28T06:32:03;40.85;;;13.10;;
31584;SDS011;18191;51.288;12.390;2024-02-28T06:36:54;34.47;;;13.90;;
31584;SDS011;18191;51.288;12.390;2024-02-28T06:41:44;35.85;;;12.35;;
31584;SDS011;18191;51.288;12.390;2024-02-28T06:46:34;44.87;;;14.20;;
31584;SDS011;18191;51.288;12.390;2024-02-28T06:51:25;50.20;;;16.20;;
31584;SDS011;18191;51.288;12.390;2024-02-28T06:56:15;44.47;;;15.77;;
31584;SDS011;18191;51.288;12.390;2024-02-28T07:01:06;43.20;;;14.67;;
31584;SDS011;18191;51.288;12.390;2024-02-28T07:05:56;44.38;;;17.30;;
31584;SDS011;18191;51.288;12.390;2024-02-28T07:10:47;49.53;;;18.87;;
31584;SDS011;18191;51.288;12.390;2024-02-28T07:15:39;48.95;;;18.77;;
31584;SDS011;18191;51.288;12.390;2024-02-28T07:20:31;51.08;;;19.65;;
31584;SDS011;18191;51.288;12.390;2024-02-28T07:25:21;62.05;;;20.00;;
31584;SDS011;18191;51.288;12.390;2024-02-28T07:30:12;60.53;;;20.70;;
31584;SDS011;18191;51.288;12.390;2024-02-28T07:35:03;60.15;;;20.40;;
31584;SDS011;18191;51.288;12.390;2024-02-28T07:39:53;61.15;;;22.35;;
31584;SDS011;18191;51.288;12.390;2024-02-28T07:44:44;67.63;;;22.43;;
31584;SDS011;18191;51.288;12.390;2024-02-28T07:49:34;68.55;;;21.38;;
31584;SDS011;18191;51.288;12.390;2024-02-28T07:54:24;63.13;;;21.90;;
31584;SDS011;18191;51.288;12.390;2024-02-28T07:59:15;65.70;;;22.87;;
31584;SDS011;18191;51.288;12.390;2024-02-28T08:04:05;67.10;;;21.83;;
31584;SDS011;18191;51.288;12.390;2024-02-28T08:08:55;60.08;;;20.65;;
31584;SDS011;18191;51.288;12.390;2024-02-28T08:13:46;57.90;;;19.57;;
31584;SDS011;18191;51.288;12.390;2024-02-28T08:18:36;58.67;;;21.17;;
31584;SDS011;18191;51.288;12.390;2024-02-28T08:23:26;54.73;;;19.53;;
31584;SDS011;18191;51.288;12.390;2024-02-28T08:28:17;55.13;;;19.77;;
31584;SDS011;18191;51.288;12.390;2024-02-28T08:33:07;49.50;;;19.98;;
31584;SDS011;18191;51.288;12.390;2024-02-28T08:42:49;50.13;;;18.27;;
31584;SDS011;18191;51.288;12.390;2024-02-28T08:47:42;40.60;;;16.63;;
31584;SDS011;18191;51.288;12.390;2024-02-28T08:52:34;53.83;;;18.73;;
31584;SDS011;18191;51.288;12.390;2024-02-28T08:57:25;53.80;;;18.13;;
31584;SDS011;18191;51.288;12.390;2024-02-28T09:02:15;43.38;;;16.67;;
31584;SDS011;18191;51.288;12.390;2024-02-28T09:07:05;44.10;;;16.33;;
31584;SDS011;18191;51.288;12.390;2024-02-28T09:11:56;46.92;;;17.12;;
31584;SDS011;18191;51.288;12.390;2024-02-28T09:16:46;41.57;;;16.47;;
31584;SDS011;18191;51.288;12.390;2024-02-28T09:21:37;40.30;;;15.65;;
31584;SDS011;18191;51.288;12.390;2024-02-28T09:26:28;48.53;;;18.83;;
31584;SDS011;18191;51.288;12.390;2024-02-28T09:31:18;41.93;;;14.53;;
31584;SDS011;18191;51.288;12.390;2024-02-28T09:36:08;41.08;;;15.64;;
31584;SDS011;18191;51.288;12.390;2024-02-28T09:40:59;42.20;;;16.30;;
31584;SDS011;18191;51.288;12.390;2024-02-28T09:45:49;34.38;;;14.73;;
31584;SDS011;18191;51.288;12.390;2024-02-28T09:50:40;37.07;;;15.50;;
31584;SDS011;18191;51.288;12.390;2024-02-28T09:55:30;40.17;;;16.10;;
31584;SDS011;18191;51.288;12.390;2024-02-28T10:00:21;33.10;;;15.13;;
31584;SDS011;18191;51.288;12.390;2024-02-28T10:05:12;34.85;;;15.10;;
31584;SDS011;18191;51.288;12.390;2024-02-28T10:10:05;39.58;;;16.70;;
31584;SDS011;18191;51.288;12.390;2024-02-28T10:14:56;43.92;;;17.15;;
31584;SDS011;18191;51.288;12.390;2024-02-28T10:19:46;47.27;;;17.67;;
31584;SDS011;18191;51.288;12.390;2024-02-28T10:24:37;41.55;;;17.63;;
31584;SDS011;18191;51.288;12.390;2024-02-28T10:29:27;42.97;;;18.38;;
31584;SDS011;18191;51.288;12.390;2024-02-28T10:34:24;39.40;;;16.85;;
31584;SDS011;18191;51.288;12.390;2024-02-28T10:39:14;36.70;;;16.47;;
31584;SDS011;18191;51.288;12.390;2024-02-28T10:44:05;34.83;;;15.45;;
31584;SDS011;18191;51.288;12.390;2024-02-28T10:48:55;38.00;;;16.17;;
31584;SDS011;18191;51.288;12.390;2024-02-28T10:58:50;33.60;;;13.80;;
31584;SDS011;18191;51.288;12.390;2024-02-28T11:03:42;34.58;;;14.10;;
31584;SDS011;18191;51.288;12.390;2024-02-28T11:08:35;37.15;;;15.18;;
31584;SDS011;18191;51.288;12.390;2024-02-28T11:13:26;34.23;;;12.97;;
31584;SDS011;18191;51.288;12.390;2024-02-28T11:18:17;29.98;;;14.15;;
31584;SDS011;18191;51.288;12.390;2024-02-28T11:23:09;36.67;;;14.73;;
31584;SDS011;18191;51.288;12.390;2024-02-28T11:27:59;33.72;;;14.80;;
31584;SDS011;18191;51.288;12.390;2024-02-28T11:32:53;37.85;;;15.82;;
31584;SDS011;18191;51.288;12.390;2024-02-28T11:37:49;35.92;;;14.15;;
31584;SDS011;18191;51.288;12.390;2024-02-28T11:42:39;39.70;;;15.70;;
31584;SDS011;18191;51.288;12.390;2024-02-28T11:47:29;30.15;;;12.13;;
31584;SDS011;18191;51.288;12.390;2024-02-28T11:52:19;33.13;;;12.98;;
31584;SDS011;18191;51.288;12.390;2024-02-28T11:57:10;29.58;;;11.98;;
31584;SDS011;18191;51.288;12.390;2024-02-28T12:02:10;30.20;;;12.45;;
31584;SDS011;18191;51.288;12.390;2024-02-28T12:07:02;26.10;;;10.55;;
31584;SDS011;18191;51.288;12.390;2024-02-28T12:11:53;28.33;;;11.50;;
31584;SDS011;18191;51.288;12.390;2024-02-28T12:16:43;26.90;;;11.23;;
31584;SDS011;18191;51.288;12.390;2024-02-28T12:21:34;29.40;;;11.60;;
31584;SDS011;18191;51.288;12.390;2024-02-28T12:26:24;27.20;;;10.67;;
31584;SDS011;18191;51.288;12.390;2024-02-28T12:31:15;27.15;;;12.18;;
31584;SDS011;18191;51.288;12.390;2024-02-28T12:36:05;23.07;;;11.27;;
31584;SDS011;18191;51.288;12.390;2024-02-28T12:40:56;30.75;;;11.05;;
31584;SDS011;18191;51.288;12.390;2024-02-28T12:45:47;27.83;;;10.65;;
31584;SDS011;18191;51.288;12.390;2024-02-28T12:50:37;27.52;;;11.35;;
31584;SDS011;18191;51.288;12.390;2024-02-28T12:55:28;20.17;;;8.70;;
31584;SDS011;18191;51.288;12.390;2024-02-28T13:00:18;23.67;;;9.67;;
31584;SDS011;18191;51.288;12.390;2024-02-28T13:05:09;28.73;;;8.57;;
31584;SDS011;18191;51.288;12.390;2024-02-28T13:10:01;22.48;;;8.63;;
31584;SDS011;18191;51.288;12.390;2024-02-28T13:14:51;20.27;;;8.50;;
31584;SDS011;18191;51.288;12.390;2024-02-28T13:19:41;21.67;;;8.30;;
31584;SDS011;18191;51.288;12.390;2024-02-28T13:24:32;23.03;;;8.70;;
31584;SDS011;18191;51.288;12.390;2024-02-28T13:29:22;20.73;;;8.23;;
31584;SDS011;18191;51.288;12.390;2024-02-28T13:34:13;21.35;;;8.80;;
31584;SDS011;18191;51.288;12.390;2024-02-28T13:39:03;24.55;;;8.82;;
31584;SDS011;18191;51.288;12.390;2024-02-28T13:43:53;22.70;;;9.57;;
31584;SDS011;18191;51.288;12.390;2024-02-28T13:48:44;22.90;;;8.57;;
31584;SDS011;18191;51.288;12.390;2024-02-28T13:53:34;23.30;;;9.17;;
31584;SDS011;18191;51.288;12.390;2024-02-28T13:58:25;20.52;;;8.85;;
31584;SDS011;18191;51.288;12.390;2024-02-28T14:03:15;22.30;;;8.27;;
31584;SDS011;18191;51.288;12.390;2024-02-28T14:08:05;19.33;;;8.57;;
31584;SDS011;18191;51.288;12.390;2024-02-28T14:13:01;16.98;;;7.70;;
31584;SDS011;18191;51.288;12.390;2024-02-28T14:17:53;24.58;;;8.68;;
31584;SDS011;18191;51.288;12.390;2024-02-28T14:22:44;21.42;;;8.77;;
31584;SDS011;18191;51.288;12.390;2024-02-28T14:27:35;21.15;;;8.52;;
31584;SDS011;18191;51.288;12.390;2024-02-28T14:32:25;18.55;;;8.43;;
31584;SDS011;18191;51.288;12.390;2024-02-28T14:37:15;24.63;;;9.43;;
31584;SDS011;18191;51.288;12.390;2024-02-28T14:42:08;20.55;;;9.15;;
31584;SDS011;18191;51.288;12.390;2024-02-28T14:47:01;27.63;;;9.60;;
31584;SDS011;18191;51.288;12.390;2024-02-28T14:51:51;28.20;;;9.50;;
31584;SDS011;18191;51.288;12.390;2024-02-28T14:56:42;22.10;;;9.00;;
31584;SDS011;18191;51.288;12.390;2024-02-28T15:01:33;21.90;;;9.15;;
31584;SDS011;18191;51.288;12.390;2024-02-28T15:06:24;25.48;;;8.68;;
31584;SDS011;18191;51.288;12.390;2024-02-28T15:11:16;21.60;;;8.60;;
31584;SDS011;18191;51.288;12.390;2024-02-28T15:16:13;25.60;;;9.50;;
31584;SDS011;18191;51.288;12.390;2024-02-28T15:21:04;20.80;;;8.27;;
31584;SDS011;18191;51.288;12.390;2024-02-28T15:25:54;19.17;;;8.43;;
31584;SDS011;18191;51.288;12.390;2024-02-28T15:30:44;20.27;;;8.20;;
31584;SDS011;18191;51.288;12.390;2024-02-28T15:35:38;21.35;;;7.85;;
31584;SDS011;18191;51.288;12.390;2024-02-28T15:40:28;21.07;;;7.57;;
31584;SDS011;18191;51.288;12.390;2024-02-28T15:45:18;22.80;;;8.10;;
31584;SDS011;18191;51.288;12.390;2024-02-28T15:50:09;19.70;;;8.13;;
31584;SDS011;18191;51.288;12.390;2024-02-28T15:55:00;18.88;;;8.30;;
31584;SDS011;18191;51.288;12.390;2024-02-28T15:59:50;17.05;;;7.80;;
31584;SDS011;18191;51.288;12.390;2024-02-28T16:04:40;17.87;;;7.47;;
31584;SDS011;18191;51.288;12.390;2024-02-28T16:09:31;19.95;;;7.78;;
31584;SDS011;18191;51.288;12.390;2024-02-28T16:14:21;19.50;;;7.97;;
31584;SDS011;18191;51.288;12.390;2024-02-28T16:19:12;27.55;;;8.20;;
31584;SDS011;18191;51.288;12.390;2024-02-28T16:24:02;18.65;;;7.57;;
31584;SDS011;18191;51.288;12.390;2024-02-28T16:28:53;18.50;;;7.97;;
31584;SDS011;18191;51.288;12.390;2024-02-28T16:33:44;19.80;;;7.45;;
31584;SDS011;18191;51.288;12.390;2024-02-28T16:38:34;25.97;;;8.00;;
31584;SDS011;18191;51.288;12.390;2024-02-28T16:43:25;18.67;;;6.88;;
31584;SDS011;18191;51.288;12.390;2024-02-28T16:48:16;18.63;;;6.93;;
31584;SDS011;18191;51.288;12.390;2024-02-28T16:53:06;32.67;;;8.60;;
31584;SDS011;18191;51.288;12.390;2024-02-28T16:57:57;28.67;;;8.57;;
31584;SDS011;18191;51.288;12.390;2024-02-28T17:02:49;22.65;;;7.13;;
31584;SDS011;18191;51.288;12.390;2024-02-28T17:07:39;23.35;;;7.82;;
31584;SDS011;18191;51.288;12.390;2024-02-28T17:12:30;25.07;;;7.97;;
31584;SDS011;18191;51.288;12.390;2024-02-28T17:17:20;32.63;;;8.67;;
31584;SDS011;18191;51.288;12.390;2024-02-28T17:22:10;22.83;;;8.00;;
31584;SDS011;18191;51.288;12.390;2024-02-28T17:27:01;19.13;;;7.67;;
31584;SDS011;18191;51.288;12.390;2024-02-28T17:31:51;28.07;;;9.13;;
31584;SDS011;18191;51.288;12.390;2024-02-28T17:36:43;23.88;;;8.15;;
31584;SDS011;18191;51.288;12.390;2024-02-28T17:41:33;21.27;;;7.60;;
31584;SDS011;18191;51.288;12.390;2024-02-28T17:46:23;25.10;;;9.63;;
31584;SDS011;18191;51.288;12.390;2024-02-28T17:51:20;27.80;;;10.53;;
31584;SDS011;18191;51.288;12.390;2024-02-28T17:56:17;32.15;;;12.93;;
31584;SDS011;18191;51.288;12.390;2024-02-28T18:01:07;29.87;;;11.40;;
31584;SDS011;18191;51.288;12.390;2024-02-28T18:05:58;27.10;;;10.94;;
31584;SDS011;18191;51.288;12.390;2024-02-28T18:10:54;33.35;;;10.75;;
31584;SDS011;18191;51.288;12.390;2024-02-28T18:15:45;26.03;;;10.20;;
31584;SDS011;18191;51.288;12.390;2024-02-28T18:20:38;32.90;;;11.53;;
31584;SDS011;18191;51.288;12.390;2024-02-28T18:25:29;30.10;;;10.57;;
31584;SDS011;18191;51.288;12.390;2024-02-28T18:30:19;40.88;;;10.40;;
31584;SDS011;18191;51.288;12.390;2024-02-28T18:35:13;44.42;;;10.90;;
31584;SDS011;18191;51.288;12.390;2024-02-28T18:40:04;25.98;;;9.10;;
31584;SDS011;18191;51.288;12.390;2024-02-28T18:45:02;26.70;;;8.93;;
31584;SDS011;18191;51.288;12.390;2024-02-28T18:49:57;30.27;;;10.35;;
31584;SDS011;18191;51.288;12.390;2024-02-28T18:54:47;23.45;;;8.98;;
31584;SDS011;18191;51.288;12.390;2024-02-28T18:59:38;36.47;;;9.80;;
31584;SDS011;18191;51.288;12.390;2024-02-28T19:04:28;26.73;;;8.70;;
31584;SDS011;18191;51.288;12.390;2024-02-28T19:09:19;22.63;;;8.35;;
31584;SDS011;18191;51.288;12.390;2024-02-28T19:14:09;33.53;;;9.13;;
31584;SDS011;18191;51.288;12.390;2024-02-28T19:18:59;29.63;;;10.13;;
31584;SDS011;18191;51.288;12.390;2024-02-28T19:23:50;23.33;;;10.00;;
31584;SDS011;18191;51.288;12.390;2024-02-28T19:28:40;31.57;;;10.83;;
31584;SDS011;18191;51.288;12.390;2024-02-28T19:38:23;28.95;;;9.00;;
31584;SDS011;18191;51.288;12.390;2024-02-28T19:43:13;45.50;;;14.63;;
31584;SDS011;18191;51.288;12.390;2024-02-28T19:48:04;46.78;;;14.68;;
31584;SDS011;18191;51.288;12.390;2024-02-28T19:52:55;40.87;;;14.50;;
31584;SDS011;18191;51.288;12.390;2024-02-28T19:57:45;39.00;;;12.63;;
31584;SDS011;18191;51.288;12.390;2024-02-28T20:02:36;42.20;;;13.93;;
31584;SDS011;18191;51.288;12.390;2024-02-28T20:07:26;52.23;;;15.80;;
31584;SDS011;18191;51.288;12.390;2024-02-28T20:12:16;54.30;;;16.48;;
31584;SDS011;18191;51.288;12.390;2024-02-28T20:17:11;60.35;;;16.00;;
31584;SDS011;18191;51.288;12.390;2024-02-28T20:22:05;74.17;;;17.43;;
31584;SDS011;18191;51.288;12.390;2024-02-28T20:26:55;68.00;;;18.33;;
31584;SDS011;18191;51.288;12.390;2024-02-28T20:31:45;60.33;;;16.47;;
31584;SDS011;18191;51.288;12.390;2024-02-28T20:36:36;43.73;;;14.97;;
31584;SDS011;18191;51.288;12.390;2024-02-28T20:41:27;49.63;;;14.57;;
31584;SDS011;18191;51.288;12.390;2024-02-28T20:46:21;47.80;;;14.77;;
31584;SDS011;18191;51.288;12.390;2024-02-28T20:51:13;42.90;;;14.53;;
31584;SDS011;18191;51.288;12.390;2024-02-28T20:56:04;53.47;;;16.07;;
31584;SDS011;18191;51.288;12.390;2024-02-28T21:00:54;46.77;;;12.53;;
31584;SDS011;18191;51.288;12.390;2024-02-28T21:05:46;51.70;;;16.97;;
31584;SDS011;18191;51.288;12.390;2024-02-28T21:10:36;52.65;;;16.63;;
31584;SDS011;18191;51.288;12.390;2024-02-28T21:15:27;47.93;;;17.43;;
31584;SDS011;18191;51.288;12.390;2024-02-28T21:20:17;48.38;;;18.40;;
31584;SDS011;18191;51.288;12.390;2024-02-28T21:25:07;53.07;;;17.60;;
31584;SDS011;18191;51.288;12.390;2024-02-28T21:29:58;55.47;;;17.83;;
31584;SDS011;18191;51.288;12.390;2024-02-28T21:34:49;61.88;;;17.30;;
31584;SDS011;18191;51.288;12.390;2024-02-28T21:39:39;81.23;;;20.37;;
31584;SDS011;18191;51.288;12.390;2024-02-28T21:44:30;56.03;;;16.77;;
31584;SDS011;18191;51.288;12.390;2024-02-28T21:49:20;49.80;;;16.00;;
31584;SDS011;18191;51.288;12.390;2024-02-28T21:54:10;52.13;;;17.33;;
31584;SDS011;18191;51.288;12.390;2024-02-28T21:59:01;44.17;;;16.07;;
31584;SDS011;18191;51.288;12.390;2024-02-28T22:03:51;56.00;;;18.83;;
31584;SDS011;18191;51.288;12.390;2024-02-28T22:08:42;59.45;;;17.05;;
31584;SDS011;18191;51.288;12.390;2024-02-28T22:13:33;64.23;;;19.27;;
31584;SDS011;18191;51.288;12.390;2024-02-28T22:18:23;56.23;;;17.43;;
31584;SDS011;18191;51.288;12.390;2024-02-28T22:23:14;62.80;;;16.60;;
31584;SDS011;18191;51.288;12.390;2024-02-28T22:28:04;60.95;;;17.73;;
31584;SDS011;18191;51.288;12.390;2024-02-28T22:32:54;60.83;;;17.93;;
31584;SDS011;18191;51.288;12.390;2024-02-28T22:37:45;53.93;;;16.20;;
31584;SDS011;18191;51.288;12.390;2024-02-28T22:42:35;40.60;;;14.37;;
31584;SDS011;18191;51.288;12.390;2024-02-28T22:47:26;43.70;;;14.07;;
31584;SDS011;18191;51.288;12.390;2024-02-28T22:52:16;58.63;;;16.05;;
31584;SDS011;18191;51.288;12.390;2024-02-28T22:57:09;49.70;;;15.63;;
31584;SDS011;18191;51.288;12.390;2024-02-28T23:02:00;44.13;;;14.30;;
31584;SDS011;18191;51.288;12.390;2024-02-28T23:06:50;41.27;;;13.63;;
31584;SDS011;18191;51.288;12.390;2024-02-28T23:11:41;47.00;;;14.67;;
31584;SDS011;18191;51.288;12.390;2024-02-28T23:16:31;43.10;;;12.90;;
31584;SDS011;18191;51.288;12.390;2024-02-28T23:21:22;48.70;;;13.47;;
31584;SDS011;18191;51.288;12.390;2024-02-28T23:26:12;46.27;;;14.10;;
31584;SDS011;18191;51.288;12.390;2024-02-28T23:31:02;44.45;;;13.35;;
31584;SDS011;18191;51.288;12.390;2024-02-28T23:35:53;40.33;;;13.23;;
31584;SDS011;18191;51.288;12.390;2024-02-28T23:40:43;40.10;;;12.10;;
31584;SDS011;18191;51.288;12.390;2024-02-28T23:45:34;37.13;;;13.13;;
31584;SDS011;18191;51.288;12.390;2024-02-28T23:50:24;42.05;;;13.45;;
31584;SDS011;18191;51.288;12.390;2024-02-28T23:55:14;29.17;;;10.95;;
